sensor_id;sensor_type;location;lat;lon;timestamp;temperature;humidity
19586;DHT22;9939;49.246;9.106;2024-02-15T00:02:23;9.30;99.90
19586;DHT22;9939;49.246;9.106;2024-02-15T00:04:50;9.30;99.90
19586;DHT22;9939;49.246;9.106;2024-02-15T00:07:17;9.30;99.90
19586;DHT22;9939;49.246;9.106;2024-02-15T00:09:44;9.30;99.90
19586;DHT22;9939;49.246;9.106;2024-02-15T00:12:11;9.20;99.90
19586;DHT22;9939;49.246;9.106;2024-02-15T00:14:38;9.20;99.90
19586;DHT22;9939;49.246;9.106;2024-02-15T00:17:05;9.20;99.90
19586;DHT22;9939;49.246;9.106;2024-02-15T00:19:32;9.20;99.90
19586;DHT22;9939;49.246;9.106;2024-02-15T00:21:59;9.30;99.90
19586;DHT22;9939;49.246;9.106;2024-02-15T00:24:26;9.30;99.90
19586;DHT22;9939;49.246;9.106;2024-02-15T00:26:53;9.30;99.90
19586;DHT22;9939;49.246;9.106;2024-02-15T00:29:21;9.20;99.90
19586;DHT22;9939;49.246;9.106;2024-02-15T00:31:48;9.30;99.90
19586;DHT22;9939;49.246;9.106;2024-02-15T00:34:16;9.40;99.90
19586;DHT22;9939;49.246;9.106;2024-02-15T00:36:44;9.30;99.90
19586;DHT22;9939;49.246;9.106;2024-02-15T00:39:11;9.10;99.90
19586;DHT22;9939;49.246;9.106;2024-02-15T00:41:40;9.00;99.90
19586;DHT22;9939;49.246;9.106;2024-02-15T00:44:09;8.90;99.90
19586;DHT22;9939;49.246;9.106;2024-02-15T00:46:39;8.70;99.90
19586;DHT22;9939;49.246;9.106;2024-02-15T00:49:08;8.60;99.90
19586;DHT22;9939;49.246;9.106;2024-02-15T00:51:36;8.60;99.90
19586;DHT22;9939;49.246;9.106;2024-02-15T00:54:03;8.40;99.90
19586;DHT22;9939;49.246;9.106;2024-02-15T00:56:31;8.20;99.90
19586;DHT22;9939;49.246;9.106;2024-02-15T00:58:59;8.10;99.90
19586;DHT22;9939;49.246;9.106;2024-02-15T01:01:30;7.90;99.90
19586;DHT22;9939;49.246;9.106;2024-02-15T01:03:57;7.90;99.90
19586;DHT22;9939;49.246;9.106;2024-02-15T01:06:24;7.90;99.90
19586;DHT22;9939;49.246;9.106;2024-02-15T01:08:51;8.00;99.90
19586;DHT22;9939;49.246;9.106;2024-02-15T01:11:18;7.90;99.90
19586;DHT22;9939;49.246;9.106;2024-02-15T01:13:45;7.90;99.90
19586;DHT22;9939;49.246;9.106;2024-02-15T01:16:12;7.90;99.90
19586;DHT22;9939;49.246;9.106;2024-02-15T01:18:39;8.00;99.90
19586;DHT22;9939;49.246;9.106;2024-02-15T01:21:06;7.90;99.90
19586;DHT22;9939;49.246;9.106;2024-02-15T01:23:33;8.00;99.90
19586;DHT22;9939;49.246;9.106;2024-02-15T01:26:04;8.10;99.90
19586;DHT22;9939;49.246;9.106;2024-02-15T01:28:31;8.20;99.90
19586;DHT22;9939;49.246;9.106;2024-02-15T01:30:59;8.20;99.90
19586;DHT22;9939;49.246;9.106;2024-02-15T01:33:26;8.10;99.90
19586;DHT22;9939;49.246;9.106;2024-02-15T01:35:54;8.10;99.90
19586;DHT22;9939;49.246;9.106;2024-02-15T01:38:21;8.10;99.90
19586;DHT22;9939;49.246;9.106;2024-02-15T01:40:48;8.10;99.90
19586;DHT22;9939;49.246;9.106;2024-02-15T01:43:15;8.10;99.90
19586;DHT22;9939;49.246;9.106;2024-02-15T01:45:42;8.20;99.90
19586;DHT22;9939;49.246;9.106;2024-02-15T01:48:10;8.10;99.90
19586;DHT22;9939;49.246;9.106;2024-02-15T01:50:38;8.20;99.90
19586;DHT22;9939;49.246;9.106;2024-02-15T01:53:07;8.10;99.90
19586;DHT22;9939;49.246;9.106;2024-02-15T01:55:35;8.10;99.90
19586;DHT22;9939;49.246;9.106;2024-02-15T01:58:03;8.00;99.90
19586;DHT22;9939;49.246;9.106;2024-02-15T02:00:30;8.10;99.90
19586;DHT22;9939;49.246;9.106;2024-02-15T02:02:57;8.10;99.90
19586;DHT22;9939;49.246;9.106;2024-02-15T02:05:30;8.20;99.90
19586;DHT22;9939;49.246;9.106;2024-02-15T02:07:57;8.20;99.90
19586;DHT22;9939;49.246;9.106;2024-02-15T02:10:28;8.30;99.90
19586;DHT22;9939;49.246;9.106;2024-02-15T02:13:02;8.30;99.90
19586;DHT22;9939;49.246;9.106;2024-02-15T02:15:31;8.20;99.90
19586;DHT22;9939;49.246;9.106;2024-02-15T02:18:00;8.20;99.90
19586;DHT22;9939;49.246;9.106;2024-02-15T02:20:27;8.20;99.90
19586;DHT22;9939;49.246;9.106;2024-02-15T02:23:17;8.20;99.90
19586;DHT22;9939;49.246;9.106;2024-02-15T02:25:49;8.10;99.90
19586;DHT22;9939;49.246;9.106;2024-02-15T02:28:16;8.10;99.90
19586;DHT22;9939;49.246;9.106;2024-02-15T02:30:44;8.10;99.90
19586;DHT22;9939;49.246;9.106;2024-02-15T02:33:12;8.20;99.90
19586;DHT22;9939;49.246;9.106;2024-02-15T02:35:47;8.10;99.90
19586;DHT22;9939;49.246;9.106;2024-02-15T02:38:15;8.20;99.90
19586;DHT22;9939;49.246;9.106;2024-02-15T02:40:42;8.20;99.90
19586;DHT22;9939;49.246;9.106;2024-02-15T02:43:09;8.20;99.90
19586;DHT22;9939;49.246;9.106;2024-02-15T02:45:37;8.20;99.90
19586;DHT22;9939;49.246;9.106;2024-02-15T02:48:04;8.20;99.90
19586;DHT22;9939;49.246;9.106;2024-02-15T02:50:32;8.20;99.90
19586;DHT22;9939;49.246;9.106;2024-02-15T02:52:59;8.30;99.90
19586;DHT22;9939;49.246;9.106;2024-02-15T02:55:26;8.30;99.90
19586;DHT22;9939;49.246;9.106;2024-02-15T02:57:57;8.40;99.90
19586;DHT22;9939;49.246;9.106;2024-02-15T03:00:24;8.60;99.90
19586;DHT22;9939;49.246;9.106;2024-02-15T03:02:51;8.80;99.90
19586;DHT22;9939;49.246;9.106;2024-02-15T03:05:18;8.80;99.90
19586;DHT22;9939;49.246;9.106;2024-02-15T03:07:48;8.70;99.90
19586;DHT22;9939;49.246;9.106;2024-02-15T03:10:15;8.60;99.90
19586;DHT22;9939;49.246;9.106;2024-02-15T03:12:42;8.60;99.90
19586;DHT22;9939;49.246;9.106;2024-02-15T03:15:16;8.60;99.90
19586;DHT22;9939;49.246;9.106;2024-02-15T03:17:46;8.60;99.90
19586;DHT22;9939;49.246;9.106;2024-02-15T03:20:14;8.60;99.90
19586;DHT22;9939;49.246;9.106;2024-02-15T03:22:57;8.60;99.90
19586;DHT22;9939;49.246;9.106;2024-02-15T03:25:25;8.60;99.90
19586;DHT22;9939;49.246;9.106;2024-02-15T03:27:53;8.60;99.90
19586;DHT22;9939;49.246;9.106;2024-02-15T03:30:22;8.50;99.90
19586;DHT22;9939;49.246;9.106;2024-02-15T03:32:49;8.50;99.90
19586;DHT22;9939;49.246;9.106;2024-02-15T03:35:19;8.50;99.90
19586;DHT22;9939;49.246;9.106;2024-02-15T03:37:47;8.50;99.90
19586;DHT22;9939;49.246;9.106;2024-02-15T03:40:18;8.50;99.90
19586;DHT22;9939;49.246;9.106;2024-02-15T03:42:46;8.50;99.90
19586;DHT22;9939;49.246;9.106;2024-02-15T03:45:13;8.60;99.90
19586;DHT22;9939;49.246;9.106;2024-02-15T03:47:41;8.50;99.90
19586;DHT22;9939;49.246;9.106;2024-02-15T03:50:09;8.60;99.90
19586;DHT22;9939;49.246;9.106;2024-02-15T03:52:37;8.60;99.90
19586;DHT22;9939;49.246;9.106;2024-02-15T03:55:05;8.70;99.90
19586;DHT22;9939;49.246;9.106;2024-02-15T03:57:35;8.70;99.90
19586;DHT22;9939;49.246;9.106;2024-02-15T04:00:06;8.80;99.90
19586;DHT22;9939;49.246;9.106;2024-02-15T04:02:38;8.80;99.90
19586;DHT22;9939;49.246;9.106;2024-02-15T04:05:09;8.80;99.90
19586;DHT22;9939;49.246;9.106;2024-02-15T04:07:37;8.80;99.90
19586;DHT22;9939;49.246;9.106;2024-02-15T04:10:05;8.90;99.90
19586;DHT22;9939;49.246;9.106;2024-02-15T04:12:33;8.80;99.90
19586;DHT22;9939;49.246;9.106;2024-02-15T04:15:00;8.90;99.90
19586;DHT22;9939;49.246;9.106;2024-02-15T04:17:32;8.90;99.90
19586;DHT22;9939;49.246;9.106;2024-02-15T04:20:02;8.90;99.90
19586;DHT22;9939;49.246;9.106;2024-02-15T04:22:31;9.00;99.90
19586;DHT22;9939;49.246;9.106;2024-02-15T04:25:07;9.10;99.90
19586;DHT22;9939;49.246;9.106;2024-02-15T04:27:38;9.20;99.90
19586;DHT22;9939;49.246;9.106;2024-02-15T04:30:06;9.30;99.90
19586;DHT22;9939;49.246;9.106;2024-02-15T04:32:38;9.10;99.90
19586;DHT22;9939;49.246;9.106;2024-02-15T04:35:05;9.00;99.90
19586;DHT22;9939;49.246;9.106;2024-02-15T04:37:36;9.10;99.90
19586;DHT22;9939;49.246;9.106;2024-02-15T04:40:04;9.00;99.90
19586;DHT22;9939;49.246;9.106;2024-02-15T04:42:38;8.90;99.90
19586;DHT22;9939;49.246;9.106;2024-02-15T04:45:08;8.90;99.90
19586;DHT22;9939;49.246;9.106;2024-02-15T04:47:35;8.90;99.90
19586;DHT22;9939;49.246;9.106;2024-02-15T04:50:03;8.90;99.90
19586;DHT22;9939;49.246;9.106;2024-02-15T04:52:33;8.80;99.90
19586;DHT22;9939;49.246;9.106;2024-02-15T04:55:00;8.80;99.90
19586;DHT22;9939;49.246;9.106;2024-02-15T04:57:27;8.80;99.90
19586;DHT22;9939;49.246;9.106;2024-02-15T05:00:00;8.80;99.90
19586;DHT22;9939;49.246;9.106;2024-02-15T05:02:27;9.00;99.90
19586;DHT22;9939;49.246;9.106;2024-02-15T05:04:54;8.90;99.90
19586;DHT22;9939;49.246;9.106;2024-02-15T05:07:23;8.90;99.90
19586;DHT22;9939;49.246;9.106;2024-02-15T05:09:50;9.00;99.90
19586;DHT22;9939;49.246;9.106;2024-02-15T05:12:23;8.90;99.90
19586;DHT22;9939;49.246;9.106;2024-02-15T05:14:52;8.90;99.90
19586;DHT22;9939;49.246;9.106;2024-02-15T05:17:20;9.00;99.90
19586;DHT22;9939;49.246;9.106;2024-02-15T05:19:52;8.90;99.90
19586;DHT22;9939;49.246;9.106;2024-02-15T05:22:19;8.90;99.90
19586;DHT22;9939;49.246;9.106;2024-02-15T05:24:46;8.90;99.90
19586;DHT22;9939;49.246;9.106;2024-02-15T05:27:13;8.80;99.90
19586;DHT22;9939;49.246;9.106;2024-02-15T05:29:40;9.00;99.90
19586;DHT22;9939;49.246;9.106;2024-02-15T05:32:10;8.90;99.90
19586;DHT22;9939;49.246;9.106;2024-02-15T05:34:37;8.90;99.90
19586;DHT22;9939;49.246;9.106;2024-02-15T05:37:07;8.90;99.90
19586;DHT22;9939;49.246;9.106;2024-02-15T05:39:34;8.90;99.90
19586;DHT22;9939;49.246;9.106;2024-02-15T05:42:01;8.90;99.90
19586;DHT22;9939;49.246;9.106;2024-02-15T05:44:28;9.00;99.90
19586;DHT22;9939;49.246;9.106;2024-02-15T05:46:55;8.90;99.90
19586;DHT22;9939;49.246;9.106;2024-02-15T05:49:23;8.90;99.90
19586;DHT22;9939;49.246;9.106;2024-02-15T05:51:51;8.80;99.90
19586;DHT22;9939;49.246;9.106;2024-02-15T05:54:20;8.80;99.90
19586;DHT22;9939;49.246;9.106;2024-02-15T05:56:50;8.80;99.90
19586;DHT22;9939;49.246;9.106;2024-02-15T05:59:19;8.80;99.90
19586;DHT22;9939;49.246;9.106;2024-02-15T06:01:47;8.80;99.90
19586;DHT22;9939;49.246;9.106;2024-02-15T06:04:18;8.70;99.90
19586;DHT22;9939;49.246;9.106;2024-02-15T06:06:46;8.70;99.90
19586;DHT22;9939;49.246;9.106;2024-02-15T06:09:17;8.80;99.90
19586;DHT22;9939;49.246;9.106;2024-02-15T06:11:44;8.90;99.90
19586;DHT22;9939;49.246;9.106;2024-02-15T06:14:12;8.90;99.90
19586;DHT22;9939;49.246;9.106;2024-02-15T06:16:46;8.90;99.90
19586;DHT22;9939;49.246;9.106;2024-02-15T06:19:13;8.80;99.90
19586;DHT22;9939;49.246;9.106;2024-02-15T06:21:42;8.80;99.90
19586;DHT22;9939;49.246;9.106;2024-02-15T06:24:09;8.80;99.90
19586;DHT22;9939;49.246;9.106;2024-02-15T06:26:37;8.80;99.90
19586;DHT22;9939;49.246;9.106;2024-02-15T06:29:04;8.70;99.90
19586;DHT22;9939;49.246;9.106;2024-02-15T06:31:50;8.60;99.90
19586;DHT22;9939;49.246;9.106;2024-02-15T06:34:35;8.60;99.90
19586;DHT22;9939;49.246;9.106;2024-02-15T06:37:35;8.70;99.90
19586;DHT22;9939;49.246;9.106;2024-02-15T06:40:21;8.70;99.90
19586;DHT22;9939;49.246;9.106;2024-02-15T06:42:48;8.80;99.90
19586;DHT22;9939;49.246;9.106;2024-02-15T06:45:15;8.80;99.90
19586;DHT22;9939;49.246;9.106;2024-02-15T06:47:46;8.90;99.90
19586;DHT22;9939;49.246;9.106;2024-02-15T06:50:14;8.90;99.90
19586;DHT22;9939;49.246;9.106;2024-02-15T06:52:41;9.00;99.90
19586;DHT22;9939;49.246;9.106;2024-02-15T06:55:09;9.00;99.90
19586;DHT22;9939;49.246;9.106;2024-02-15T06:57:39;9.00;99.90
19586;DHT22;9939;49.246;9.106;2024-02-15T07:00:10;9.10;99.90
19586;DHT22;9939;49.246;9.106;2024-02-15T07:02:42;9.20;99.90
19586;DHT22;9939;49.246;9.106;2024-02-15T07:05:11;9.20;99.90
19586;DHT22;9939;49.246;9.106;2024-02-15T07:07:39;9.30;99.90
19586;DHT22;9939;49.246;9.106;2024-02-15T07:10:06;9.40;99.90
19586;DHT22;9939;49.246;9.106;2024-02-15T07:12:33;9.50;99.90
19586;DHT22;9939;49.246;9.106;2024-02-15T07:15:01;9.70;99.90
19586;DHT22;9939;49.246;9.106;2024-02-15T07:17:31;9.80;99.90
19586;DHT22;9939;49.246;9.106;2024-02-15T07:19:58;10.00;99.90
19586;DHT22;9939;49.246;9.106;2024-02-15T07:22:25;10.10;99.90
19586;DHT22;9939;49.246;9.106;2024-02-15T07:24:52;10.40;99.90
19586;DHT22;9939;49.246;9.106;2024-02-15T07:27:19;10.50;99.90
19586;DHT22;9939;49.246;9.106;2024-02-15T07:29:49;10.70;99.90
19586;DHT22;9939;49.246;9.106;2024-02-15T07:32:16;10.80;99.90
19586;DHT22;9939;49.246;9.106;2024-02-15T07:34:44;11.10;99.90
19586;DHT22;9939;49.246;9.106;2024-02-15T07:37:12;11.20;99.90
19586;DHT22;9939;49.246;9.106;2024-02-15T07:39:39;11.20;99.90
19586;DHT22;9939;49.246;9.106;2024-02-15T07:42:07;11.40;99.90
19586;DHT22;9939;49.246;9.106;2024-02-15T07:44:35;11.40;99.90
19586;DHT22;9939;49.246;9.106;2024-02-15T07:47:03;11.50;99.90
19586;DHT22;9939;49.246;9.106;2024-02-15T07:49:31;11.40;99.90
19586;DHT22;9939;49.246;9.106;2024-02-15T07:52:00;11.60;99.90
19586;DHT22;9939;49.246;9.106;2024-02-15T07:54:27;11.80;99.90
19586;DHT22;9939;49.246;9.106;2024-02-15T07:56:56;11.80;99.90
19586;DHT22;9939;49.246;9.106;2024-02-15T07:59:25;11.90;99.90
19586;DHT22;9939;49.246;9.106;2024-02-15T08:01:52;12.00;99.90
19586;DHT22;9939;49.246;9.106;2024-02-15T08:04:19;12.10;99.90
19586;DHT22;9939;49.246;9.106;2024-02-15T08:06:48;12.20;99.90
19586;DHT22;9939;49.246;9.106;2024-02-15T08:09:16;11.90;99.90
19586;DHT22;9939;49.246;9.106;2024-02-15T08:11:44;11.90;99.90
19586;DHT22;9939;49.246;9.106;2024-02-15T08:14:11;11.80;99.90
19586;DHT22;9939;49.246;9.106;2024-02-15T08:16:40;12.00;99.90
19586;DHT22;9939;49.246;9.106;2024-02-15T08:19:08;12.00;99.90
19586;DHT22;9939;49.246;9.106;2024-02-15T08:21:37;12.00;99.90
19586;DHT22;9939;49.246;9.106;2024-02-15T08:24:05;12.10;99.90
19586;DHT22;9939;49.246;9.106;2024-02-15T08:26:33;12.20;99.90
19586;DHT22;9939;49.246;9.106;2024-02-15T08:29:02;12.40;99.90
19586;DHT22;9939;49.246;9.106;2024-02-15T08:31:33;12.40;99.90
19586;DHT22;9939;49.246;9.106;2024-02-15T08:34:03;12.40;99.90
19586;DHT22;9939;49.246;9.106;2024-02-15T08:36:33;12.60;99.90
19586;DHT22;9939;49.246;9.106;2024-02-15T08:39:00;12.70;99.90
19586;DHT22;9939;49.246;9.106;2024-02-15T08:41:28;12.70;99.90
19586;DHT22;9939;49.246;9.106;2024-02-15T08:43:55;12.80;99.90
19586;DHT22;9939;49.246;9.106;2024-02-15T08:46:24;12.80;99.90
19586;DHT22;9939;49.246;9.106;2024-02-15T08:48:53;12.60;99.90
19586;DHT22;9939;49.246;9.106;2024-02-15T08:51:20;12.70;99.90
19586;DHT22;9939;49.246;9.106;2024-02-15T08:53:51;12.50;99.90
19586;DHT22;9939;49.246;9.106;2024-02-15T08:56:18;12.50;99.90
19586;DHT22;9939;49.246;9.106;2024-02-15T08:58:45;12.80;99.90
19586;DHT22;9939;49.246;9.106;2024-02-15T09:01:13;12.90;99.90
19586;DHT22;9939;49.246;9.106;2024-02-15T09:03:41;13.00;99.90
19586;DHT22;9939;49.246;9.106;2024-02-15T09:06:08;13.50;99.90
19586;DHT22;9939;49.246;9.106;2024-02-15T09:08:35;14.00;99.90
19586;DHT22;9939;49.246;9.106;2024-02-15T09:11:02;14.70;99.90
19586;DHT22;9939;49.246;9.106;2024-02-15T09:13:32;14.50;99.90
19586;DHT22;9939;49.246;9.106;2024-02-15T09:16:01;15.20;99.90
19586;DHT22;9939;49.246;9.106;2024-02-15T09:18:28;16.40;99.90
19586;DHT22;9939;49.246;9.106;2024-02-15T09:20:55;17.00;99.90
19586;DHT22;9939;49.246;9.106;2024-02-15T09:23:22;18.20;99.90
19586;DHT22;9939;49.246;9.106;2024-02-15T09:25:52;18.50;99.90
19586;DHT22;9939;49.246;9.106;2024-02-15T09:28:19;19.20;99.90
19586;DHT22;9939;49.246;9.106;2024-02-15T09:30:50;19.80;99.90
19586;DHT22;9939;49.246;9.106;2024-02-15T09:33:22;21.10;99.90
19586;DHT22;9939;49.246;9.106;2024-02-15T09:35:49;20.60;99.90
19586;DHT22;9939;49.246;9.106;2024-02-15T09:38:17;21.50;99.90
19586;DHT22;9939;49.246;9.106;2024-02-15T09:40:48;22.30;99.90
19586;DHT22;9939;49.246;9.106;2024-02-15T09:43:16;21.30;99.90
19586;DHT22;9939;49.246;9.106;2024-02-15T09:45:43;22.90;99.90
19586;DHT22;9939;49.246;9.106;2024-02-15T09:48:11;24.50;99.90
19586;DHT22;9939;49.246;9.106;2024-02-15T09:50:42;24.80;99.90
19586;DHT22;9939;49.246;9.106;2024-02-15T09:53:14;24.70;99.90
19586;DHT22;9939;49.246;9.106;2024-02-15T09:55:42;24.80;99.90
19586;DHT22;9939;49.246;9.106;2024-02-15T09:58:10;24.30;99.90
19586;DHT22;9939;49.246;9.106;2024-02-15T10:00:39;24.00;99.90
19586;DHT22;9939;49.246;9.106;2024-02-15T10:03:07;24.20;99.90
19586;DHT22;9939;49.246;9.106;2024-02-15T10:05:35;23.60;99.90
19586;DHT22;9939;49.246;9.106;2024-02-15T10:08:02;24.00;99.90
19586;DHT22;9939;49.246;9.106;2024-02-15T10:10:30;24.90;99.90
19586;DHT22;9939;49.246;9.106;2024-02-15T10:13:00;25.40;99.90
19586;DHT22;9939;49.246;9.106;2024-02-15T10:15:38;26.30;99.90
19586;DHT22;9939;49.246;9.106;2024-02-15T10:18:08;24.60;99.90
19586;DHT22;9939;49.246;9.106;2024-02-15T10:20:38;25.10;99.90
19586;DHT22;9939;49.246;9.106;2024-02-15T10:23:10;23.60;99.90
19586;DHT22;9939;49.246;9.106;2024-02-15T10:25:39;24.50;99.90
19586;DHT22;9939;49.246;9.106;2024-02-15T10:28:10;26.00;99.90
19586;DHT22;9939;49.246;9.106;2024-02-15T10:30:40;26.70;99.90
19586;DHT22;9939;49.246;9.106;2024-02-15T10:33:27;25.20;99.90
19586;DHT22;9939;49.246;9.106;2024-02-15T10:36:08;26.60;99.90
19586;DHT22;9939;49.246;9.106;2024-02-15T10:38:36;24.60;99.90
19586;DHT22;9939;49.246;9.106;2024-02-15T10:41:05;24.10;99.90
19586;DHT22;9939;49.246;9.106;2024-02-15T10:43:36;24.20;99.90
19586;DHT22;9939;49.246;9.106;2024-02-15T10:46:08;24.00;99.90
19586;DHT22;9939;49.246;9.106;2024-02-15T10:48:37;22.70;99.90
19586;DHT22;9939;49.246;9.106;2024-02-15T10:51:10;23.40;99.90
19586;DHT22;9939;49.246;9.106;2024-02-15T10:53:45;23.80;99.90
19586;DHT22;9939;49.246;9.106;2024-02-15T10:56:23;22.90;99.90
19586;DHT22;9939;49.246;9.106;2024-02-15T10:59:00;23.20;99.90
19586;DHT22;9939;49.246;9.106;2024-02-15T11:01:30;23.70;99.90
19586;DHT22;9939;49.246;9.106;2024-02-15T11:04:08;24.40;99.90
19586;DHT22;9939;49.246;9.106;2024-02-15T11:06:38;24.90;99.90
19586;DHT22;9939;49.246;9.106;2024-02-15T11:09:10;24.20;99.90
19586;DHT22;9939;49.246;9.106;2024-02-15T11:11:39;23.50;99.90
19586;DHT22;9939;49.246;9.106;2024-02-15T11:14:24;23.20;99.90
19586;DHT22;9939;49.246;9.106;2024-02-15T11:16:51;22.50;99.90
19586;DHT22;9939;49.246;9.106;2024-02-15T11:19:44;21.90;99.90
19586;DHT22;9939;49.246;9.106;2024-02-15T11:22:15;23.40;99.90
19586;DHT22;9939;49.246;9.106;2024-02-15T11:24:48;22.90;99.90
19586;DHT22;9939;49.246;9.106;2024-02-15T11:27:29;24.40;99.90
19586;DHT22;9939;49.246;9.106;2024-02-15T11:29:58;25.90;99.90
19586;DHT22;9939;49.246;9.106;2024-02-15T11:35:21;27.20;99.40
19586;DHT22;9939;49.246;9.106;2024-02-15T11:40:22;26.20;99.30
19586;DHT22;9939;49.246;9.106;2024-02-15T11:42:57;24.90;99.90
19586;DHT22;9939;49.246;9.106;2024-02-15T11:45:29;23.90;99.90
19586;DHT22;9939;49.246;9.106;2024-02-15T11:48:01;24.20;99.90
19586;DHT22;9939;49.246;9.106;2024-02-15T11:50:34;23.40;99.90
19586;DHT22;9939;49.246;9.106;2024-02-15T11:53:05;24.00;99.90
19586;DHT22;9939;49.246;9.106;2024-02-15T11:55:39;21.80;99.90
19586;DHT22;9939;49.246;9.106;2024-02-15T11:58:08;21.60;99.90
19586;DHT22;9939;49.246;9.106;2024-02-15T12:00:38;22.70;99.90
19586;DHT22;9939;49.246;9.106;2024-02-15T12:03:25;23.50;99.90
19586;DHT22;9939;49.246;9.106;2024-02-15T12:06:30;24.00;99.80
19586;DHT22;9939;49.246;9.106;2024-02-15T12:09:19;22.50;99.90
19586;DHT22;9939;49.246;9.106;2024-02-15T12:12:06;22.10;99.90
19586;DHT22;9939;49.246;9.106;2024-02-15T12:15:01;22.20;99.90
19586;DHT22;9939;49.246;9.106;2024-02-15T12:17:48;22.20;99.90
19586;DHT22;9939;49.246;9.106;2024-02-15T12:20:33;23.10;99.90
19586;DHT22;9939;49.246;9.106;2024-02-15T12:23:02;23.60;99.90
19586;DHT22;9939;49.246;9.106;2024-02-15T12:25:29;23.50;99.90
19586;DHT22;9939;49.246;9.106;2024-02-15T12:28:01;22.40;99.90
19586;DHT22;9939;49.246;9.106;2024-02-15T12:30:35;21.90;99.90
19586;DHT22;9939;49.246;9.106;2024-02-15T12:33:11;21.00;99.90
19586;DHT22;9939;49.246;9.106;2024-02-15T12:35:40;20.80;99.90
19586;DHT22;9939;49.246;9.106;2024-02-15T12:38:09;20.80;99.90
19586;DHT22;9939;49.246;9.106;2024-02-15T12:40:39;20.20;99.90
19586;DHT22;9939;49.246;9.106;2024-02-15T12:43:11;20.50;99.90
19586;DHT22;9939;49.246;9.106;2024-02-15T12:45:40;20.60;99.90
19586;DHT22;9939;49.246;9.106;2024-02-15T12:48:08;20.50;99.90
19586;DHT22;9939;49.246;9.106;2024-02-15T12:50:36;21.00;99.90
19586;DHT22;9939;49.246;9.106;2024-02-15T12:53:03;20.40;99.90
19586;DHT22;9939;49.246;9.106;2024-02-15T12:55:34;20.50;99.90
19586;DHT22;9939;49.246;9.106;2024-02-15T12:58:06;21.20;99.90
19586;DHT22;9939;49.246;9.106;2024-02-15T13:00:36;21.70;99.90
19586;DHT22;9939;49.246;9.106;2024-02-15T13:03:08;21.70;99.90
19586;DHT22;9939;49.246;9.106;2024-02-15T13:05:37;21.40;99.90
19586;DHT22;9939;49.246;9.106;2024-02-15T13:08:05;20.70;99.90
19586;DHT22;9939;49.246;9.106;2024-02-15T13:10:37;20.50;99.90
19586;DHT22;9939;49.246;9.106;2024-02-15T13:13:06;20.10;99.90
19586;DHT22;9939;49.246;9.106;2024-02-15T13:15:33;20.50;99.90
19586;DHT22;9939;49.246;9.106;2024-02-15T13:18:01;20.40;99.90
19586;DHT22;9939;49.246;9.106;2024-02-15T13:20:32;20.20;99.90
19586;DHT22;9939;49.246;9.106;2024-02-15T13:23:07;19.90;99.90
19586;DHT22;9939;49.246;9.106;2024-02-15T13:25:52;20.20;99.90
19586;DHT22;9939;49.246;9.106;2024-02-15T13:28:19;19.60;99.90
19586;DHT22;9939;49.246;9.106;2024-02-15T13:30:47;19.60;99.90
19586;DHT22;9939;49.246;9.106;2024-02-15T13:33:16;20.20;99.90
19586;DHT22;9939;49.246;9.106;2024-02-15T13:35:44;19.60;99.90
19586;DHT22;9939;49.246;9.106;2024-02-15T13:38:12;20.00;99.90
19586;DHT22;9939;49.246;9.106;2024-02-15T13:40:49;20.20;99.90
19586;DHT22;9939;49.246;9.106;2024-02-15T13:43:18;20.40;99.90
19586;DHT22;9939;49.246;9.106;2024-02-15T13:45:46;19.90;99.90
19586;DHT22;9939;49.246;9.106;2024-02-15T13:48:13;19.80;99.90
19586;DHT22;9939;49.246;9.106;2024-02-15T13:50:42;19.50;99.90
19586;DHT22;9939;49.246;9.106;2024-02-15T13:53:11;20.10;99.90
19586;DHT22;9939;49.246;9.106;2024-02-15T13:55:40;20.00;99.90
19586;DHT22;9939;49.246;9.106;2024-02-15T13:58:08;20.10;99.90
19586;DHT22;9939;49.246;9.106;2024-02-15T14:00:40;20.40;99.90
19586;DHT22;9939;49.246;9.106;2024-02-15T14:03:10;20.70;99.90
19586;DHT22;9939;49.246;9.106;2024-02-15T14:05:38;20.70;99.90
19586;DHT22;9939;49.246;9.106;2024-02-15T14:08:08;20.10;99.90
19586;DHT22;9939;49.246;9.106;2024-02-15T14:10:36;19.50;99.90
19586;DHT22;9939;49.246;9.106;2024-02-15T14:13:04;19.20;99.90
19586;DHT22;9939;49.246;9.106;2024-02-15T14:15:33;19.40;99.90
19586;DHT22;9939;49.246;9.106;2024-02-15T14:18:08;19.70;99.90
19586;DHT22;9939;49.246;9.106;2024-02-15T14:20:40;19.50;99.90
19586;DHT22;9939;49.246;9.106;2024-02-15T14:23:09;19.60;99.90
19586;DHT22;9939;49.246;9.106;2024-02-15T14:25:41;19.40;99.90
19586;DHT22;9939;49.246;9.106;2024-02-15T14:28:09;19.40;99.90
19586;DHT22;9939;49.246;9.106;2024-02-15T14:30:36;19.50;99.90
19586;DHT22;9939;49.246;9.106;2024-02-15T14:33:22;19.50;99.90
19586;DHT22;9939;49.246;9.106;2024-02-15T14:35:58;19.30;99.90
19586;DHT22;9939;49.246;9.106;2024-02-15T14:38:27;18.70;99.90
19586;DHT22;9939;49.246;9.106;2024-02-15T14:40:54;18.30;99.90
19586;DHT22;9939;49.246;9.106;2024-02-15T14:43:23;18.60;99.90
19586;DHT22;9939;49.246;9.106;2024-02-15T14:45:52;18.50;99.90
19586;DHT22;9939;49.246;9.106;2024-02-15T14:48:20;18.70;99.90
19586;DHT22;9939;49.246;9.106;2024-02-15T14:50:48;18.70;99.90
19586;DHT22;9939;49.246;9.106;2024-02-15T14:53:19;18.70;99.90
19586;DHT22;9939;49.246;9.106;2024-02-15T14:55:46;18.80;99.90
19586;DHT22;9939;49.246;9.106;2024-02-15T14:58:14;18.70;99.90
19586;DHT22;9939;49.246;9.106;2024-02-15T15:00:43;18.80;99.90
19586;DHT22;9939;49.246;9.106;2024-02-15T15:03:16;18.80;99.90
19586;DHT22;9939;49.246;9.106;2024-02-15T15:05:44;18.70;99.90
19586;DHT22;9939;49.246;9.106;2024-02-15T15:08:31;18.60;99.90
19586;DHT22;9939;49.246;9.106;2024-02-15T15:11:18;18.30;99.90
19586;DHT22;9939;49.246;9.106;2024-02-15T15:14:03;18.00;99.90
19586;DHT22;9939;49.246;9.106;2024-02-15T15:16:32;18.00;99.90
19586;DHT22;9939;49.246;9.106;2024-02-15T15:19:00;17.90;99.90
19586;DHT22;9939;49.246;9.106;2024-02-15T15:21:28;17.80;99.90
19586;DHT22;9939;49.246;9.106;2024-02-15T15:23:55;17.80;99.90
19586;DHT22;9939;49.246;9.106;2024-02-15T15:26:23;17.80;99.90
19586;DHT22;9939;49.246;9.106;2024-02-15T15:28:50;17.70;99.90
19586;DHT22;9939;49.246;9.106;2024-02-15T15:31:18;17.60;99.90
19586;DHT22;9939;49.246;9.106;2024-02-15T15:33:48;17.50;99.90
19586;DHT22;9939;49.246;9.106;2024-02-15T15:36:19;17.40;99.90
19586;DHT22;9939;49.246;9.106;2024-02-15T15:38:49;17.20;99.90
19586;DHT22;9939;49.246;9.106;2024-02-15T15:41:17;17.00;99.90
19586;DHT22;9939;49.246;9.106;2024-02-15T15:43:44;16.80;99.90
19586;DHT22;9939;49.246;9.106;2024-02-15T15:46:14;16.60;99.90
19586;DHT22;9939;49.246;9.106;2024-02-15T15:48:42;16.50;99.90
19586;DHT22;9939;49.246;9.106;2024-02-15T15:51:11;16.30;99.90
19586;DHT22;9939;49.246;9.106;2024-02-15T15:53:39;16.10;99.90
19586;DHT22;9939;49.246;9.106;2024-02-15T15:56:07;16.00;99.90
19586;DHT22;9939;49.246;9.106;2024-02-15T15:58:34;15.90;99.90
19586;DHT22;9939;49.246;9.106;2024-02-15T16:01:01;15.80;99.90
19586;DHT22;9939;49.246;9.106;2024-02-15T16:03:28;15.70;99.90
19586;DHT22;9939;49.246;9.106;2024-02-15T16:05:57;15.60;99.90
19586;DHT22;9939;49.246;9.106;2024-02-15T16:08:24;15.60;99.90
19586;DHT22;9939;49.246;9.106;2024-02-15T16:10:53;15.50;99.90
19586;DHT22;9939;49.246;9.106;2024-02-15T16:13:22;15.20;99.90
19586;DHT22;9939;49.246;9.106;2024-02-15T16:15:53;15.00;99.90